Estación Meteorológica Peña el Pijo (Robertgarden) [ 12/14/19 08:41:05 CET ]

Fecha Hora Presion(HPa) Temp (°C) Humedad % Rocio (°C) Viento ( m/s) Direccion Lluvia 1Hora(mm) Lluvia 24H(mm) LLuvia Total(mm)
2019-Nov-12 01:01:50 1004.600 6.9 69 1.6         24.86
2019-Nov-12 02:01:48 1004.100 5.9 72 1.3         24.86
2019-Nov-12 03:01:44 1004.100 5.9 73 1.4         24.86
2019-Nov-12 04:07:06 1003.400 5.6 73 1.1         24.86
2019-Nov-12 05:01:42 1003.700 4.4 75 0.3         24.86
2019-Nov-12 06:01:42 1003.300 5.0 73 0.5         24.86
2019-Nov-12 07:01:58 1003.500 4.6 71 -0.2         24.86
2019-Nov-12 08:01:50 1003.900 3.5 74 -0.7         24.86
2019-Nov-12 09:01:50 1003.700 4.9 73 0.4         24.86
2019-Nov-12 10:01:50 1004.000 8.7 59 1.1         24.86
2019-Nov-12 11:01:44 1004.100 11.1 49 0.8         24.86
2019-Nov-12 12:01:46 1003.900 12.1 46 0.8         24.86
2019-Nov-12 13:01:54 1003.100 12.5 42 -0.1         24.86
2019-Nov-12 14:01:48 1002.500 12.3 38 -1.7 1.2 N     24.86
2019-Nov-12 15:01:53 1002.600 11.9 43 -0.4 2.5 NNE     24.86
2019-Nov-12 16:01:45 1002.600 11.5 44 -0.4         24.86
2019-Nov-12 17:01:41 1002.400 9.9 49 -0.3         24.86
2019-Nov-12 18:01:39 1002.300 8.1 57 0.0         24.86
2019-Nov-12 19:01:42 1002.600 6.3 64 -0.0         24.86
2019-Nov-12 20:01:34 1002.100 6.9 67 1.2         24.86
2019-Nov-12 21:01:46 1002.600 7.2 68 1.7         24.86
2019-Nov-12 22:01:42 1002.700 7.2 70 2.1         24.86
2019-Nov-12 23:01:33 1002.400 7.3 71 2.4         24.86

Temperatura Máxima:12°    Temperatura Mínima:
Presión Máxima:1004.600 Hpa    Presión Mínima:1002.100 Hpa


Volver